Time;durP1;ratioP1;P1;durP2;ratioP2;P2;SDS_P1;SDS_P2;PMS_P1;PMS_P2;Temp;Humidity;BMP_temperature;BMP_pressure;BME280_temperature;BME280_humidity;BME280_pressure;Samples;Min_cycle;Max_cycle;Signal;HPM_P1;HPM_P2
2022/09/26 00:01:23;;;;;;;7.90;4.70;;;;;;;15.04;57.44;100900.31;4986756;28;122421;-59
2022/09/26 00:03:56;;;;;;;7.25;4.80;;;;;;;15.02;57.31;100891.56;4991095;28;124571;-59
2022/09/26 00:06:25;;;;;;;7.63;4.50;;;;;;;15.01;57.30;100887.16;4989437;28;114727;-59
2022/09/26 00:08:53;;;;;;;6.00;4.55;;;;;;;15.01;57.29;100879.16;4990309;28;113841;-59
2022/09/26 00:11:26;;;;;;;7.45;4.78;;;;;;;15.01;57.24;100879.16;4990511;28;124307;-59
2022/09/26 00:13:56;;;;;;;9.07;4.38;;;;;;;14.97;57.17;100868.69;4988122;28;123893;-59
2022/09/26 00:16:24;;;;;;;6.05;4.80;;;;;;;14.96;57.38;100866.97;4986935;28;115369;-60
2022/09/26 00:18:54;;;;;;;6.93;4.68;;;;;;;14.94;57.25;100871.56;4984699;28;115152;-61
2022/09/26 00:21:22;;;;;;;6.68;4.93;;;;;;;14.93;57.42;100867.16;4988138;28;124538;-61
2022/09/26 00:23:49;;;;;;;6.32;4.60;;;;;;;14.90;57.39;100870.03;4988338;28;123712;-61
2022/09/26 00:26:19;;;;;;;6.50;4.82;;;;;;;14.89;57.45;100859.47;4986620;28;113790;-61
2022/09/26 00:28:46;;;;;;;8.50;4.57;;;;;;;14.88;57.67;100858.63;4986019;28;114207;-61
2022/09/26 00:31:17;;;;;;;6.65;4.63;;;;;;;14.87;57.65;100851.56;4987929;28;123205;-61
2022/09/26 00:33:45;;;;;;;7.22;4.78;;;;;;;14.88;57.48;100847.94;4987997;28;123740;-61
2022/09/26 00:36:13;;;;;;;6.32;4.65;;;;;;;14.87;57.53;100851.56;4986330;28;113060;-61
2022/09/26 00:38:40;;;;;;;7.53;4.40;;;;;;;14.86;57.66;100849.84;4989837;28;114280;-61
2022/09/26 00:41:07;;;;;;;6.32;4.53;;;;;;;14.86;57.78;100849.84;4988174;28;123449;-61
2022/09/26 00:43:46;;;;;;;7.25;4.60;;;;;;;14.84;57.75;100835.72;4987470;28;124135;-62
2022/09/26 00:46:31;;;;;;;5.53;4.55;;;;;;;14.84;57.74;100835.72;4988821;28;113707;-60
2022/09/26 00:49:22;;;;;;;6.57;4.93;;;;;;;14.82;57.56;100826.97;4985877;28;113075;-61
2022/09/26 00:52:00;;;;;;;7.47;4.50;;;;;;;14.82;57.68;100826.13;4982342;28;124727;-62
2022/09/26 00:54:29;;;;;;;6.05;4.35;;;;;;;14.81;57.78;100825.28;4979939;28;123272;-61
2022/09/26 00:57:04;;;;;;;8.57;4.68;;;;;;;14.80;57.85;100818.22;4988374;28;114191;-61
2022/09/26 00:59:36;;;;;;;7.68;5.22;;;;;;;14.80;57.90;100818.22;4987606;28;113875;-61
2022/09/26 01:02:03;;;;;;;7.38;4.63;;;;;;;14.81;57.93;100814.63;4987098;28;124972;-60
2022/09/26 01:04:34;;;;;;;7.22;4.80;;;;;;;14.81;57.98;100809.28;4987453;28;123619;-60
2022/09/26 01:07:06;;;;;;;7.30;4.63;;;;;;;14.81;58.07;100814.63;4984097;28;115791;-60
2022/09/26 01:09:33;;;;;;;7.55;4.45;;;;;;;14.82;58.12;100797.66;4987452;28;115018;-61
2022/09/26 01:12:02;;;;;;;8.15;4.28;;;;;;;14.84;58.00;100793.06;4996486;28;123064;-61
2022/09/26 01:14:31;;;;;;;7.35;4.28;;;;;;;14.86;58.09;100791.19;4985849;28;123213;-61
2022/09/26 01:16:59;;;;;;;7.25;4.60;;;;;;;14.88;57.92;100783.94;4988910;28;115701;-60
2022/09/26 01:19:56;;;;;;;8.15;4.57;;;;;;;14.90;57.99;100776.69;4989115;28;112714;-61
2022/09/26 01:22:42;;;;;;;6.78;4.20;;;;;;;14.91;57.97;100773.06;4983557;28;123262;-61
2022/09/26 01:25:27;;;;;;;;;;;;;;;14.89;57.83;100764.31;4995451;28;122502;-61
2022/09/26 01:28:43;;;;;;;11.25;4.55;;;;;;;14.93;57.81;100756.97;4986290;28;97208;-61
2022/09/26 01:31:41;;;;;;;5.88;4.28;;;;;;;14.91;57.76;100757.06;4953838;28;113292;-61
2022/09/26 01:34:23;;;;;;;9.73;4.70;;;;;;;14.91;58.08;100746.41;4988288;28;122328;-61
2022/09/26 01:37:24;;;;;;;9.95;4.35;;;;;;;14.91;57.96;100735.72;4999876;28;123454;-61
2022/09/26 01:40:28;;;;;;;6.97;4.60;;;;;;;14.90;57.91;100731.38;4986529;28;114322;-60
2022/09/26 01:43:30;;;;;;;8.43;4.50;;;;;;;14.87;57.75;100720.88;4979830;28;113101;-60
2022/09/26 01:46:00;;;;;;;6.15;4.00;;;;;;;14.88;57.89;100725.28;4972883;28;124108;-60
2022/09/26 01:48:46;;;;;;;9.70;4.65;;;;;;;14.88;57.79;100717.28;4963683;28;123069;-61
2022/09/26 01:51:21;;;;;;;;;;;;;;;14.87;57.68;100702.22;4988525;28;113560;-60
2022/09/26 01:53:58;;;;;;;7.88;4.78;;;;;;;14.88;57.65;100698.63;4983448;28;113807;-61
2022/09/26 01:56:29;;;;;;;6.03;4.55;;;;;;;14.88;57.77;100693.28;4985362;28;123306;-61
2022/09/26 01:59:02;;;;;;;7.93;4.60;;;;;;;14.87;57.74;100686.22;4985741;28;123363;-60
2022/09/26 02:01:34;;;;;;;7.43;4.75;;;;;;;14.86;57.93;100679.19;4987217;28;114475;-60
2022/09/26 02:04:13;;;;;;;6.40;4.53;;;;;;;14.85;57.81;100677.47;4986590;28;115524;-61
2022/09/26 02:06:53;;;;;;;6.43;4.55;;;;;;;14.84;57.94;100670.41;4985385;28;123904;-61
2022/09/26 02:09:31;;;;;;;7.97;3.95;;;;;;;14.84;57.90;100670.41;4988346;28;123866;-60
2022/09/26 02:12:04;;;;;;;6.00;4.40;;;;;;;14.83;57.95;100663.38;4989942;28;115034;-60
2022/09/26 02:14:35;;;;;;;6.85;4.22;;;;;;;14.84;57.95;100657.09;4989417;28;113152;-60
2022/09/26 02:17:11;;;;;;;6.30;3.70;;;;;;;14.83;58.04;100652.72;4996645;28;123128;-60
2022/09/26 02:19:59;;;;;;;6.10;3.90;;;;;;;14.84;58.03;100643.75;4975065;28;123073;-60
2022/09/26 02:22:31;;;;;;;7.40;3.88;;;;;;;14.84;58.04;100638.41;5006343;28;113938;-61
2022/09/26 02:25:00;;;;;;;9.65;3.72;;;;;;;14.86;58.02;100633.88;4969376;28;112782;-60
2022/09/26 02:27:28;;;;;;;7.75;3.88;;;;;;;14.88;57.89;100633.75;4990482;28;123649;-61
2022/09/26 02:29:57;;;;;;;6.03;3.67;;;;;;;14.87;57.92;100622.22;4986575;28;123302;-61
2022/09/26 02:32:31;;;;;;;6.60;3.50;;;;;;;14.87;57.99;100622.22;4989033;28;113324;-60
2022/09/26 02:34:59;;;;;;;5.13;3.63;;;;;;;14.87;58.03;100616.91;4989188;28;114320;-60
2022/09/26 02:37:29;;;;;;;5.18;3.45;;;;;;;14.86;57.99;100609.88;4990508;28;123618;-60
2022/09/26 02:39:57;;;;;;;6.40;3.65;;;;;;;14.87;57.95;100611.56;4991759;28;123997;-60
2022/09/26 02:42:33;;;;;;;6.18;3.58;;;;;;;14.87;57.97;100600.91;4985360;28;113650;-60
2022/09/26 02:45:13;;;;;;;5.80;3.25;;;;;;;14.86;57.95;100599.19;4991198;28;113069;-59
2022/09/26 02:47:46;;;;;;;6.07;2.83;;;;;;;14.86;57.87;100604.53;4984926;28;122570;-59
2022/09/26 02:50:33;;;;;;;8.40;3.40;;;;;;;14.85;58.03;100589.47;4990304;28;126924;-59
2022/09/26 02:53:15;;;;;;;5.45;3.10;;;;;;;14.85;57.88;100592.16;4989699;28;115726;-59
2022/09/26 02:55:59;;;;;;;9.02;3.50;;;;;;;14.85;58.15;100581.47;4985994;28;114449;-59
2022/09/26 02:58:41;;;;;;;7.57;3.00;;;;;;;14.85;57.90;100586.81;4984862;28;123821;-59
2022/09/26 03:01:36;;;;;;;7.63;3.50;;;;;;;14.87;57.93;100582.22;4987178;28;123313;-59
2022/09/26 03:04:17;;;;;;;6.25;3.25;;;;;;;14.86;57.88;100583.22;4991082;28;114551;-59
2022/09/26 03:06:49;;;;;;;6.20;3.40;;;;;;;14.88;57.93;100575.94;4988643;28;112905;-59
2022/09/26 03:09:19;;;;;;;10.50;3.10;;;;;;;14.87;57.68;100574.22;4984625;28;123542;-59
2022/09/26 03:11:48;;;;;;;5.90;3.00;;;;;;;14.88;57.75;100570.63;4988247;28;122943;-60
2022/09/26 03:14:19;;;;;;;6.32;3.08;;;;;;;14.87;57.73;100568.91;4988181;28;114872;-59
2022/09/26 03:16:50;;;;;;;5.63;2.58;;;;;;;14.89;57.73;100561.66;4988527;28;113261;-59
2022/09/26 03:19:34;;;;;;;6.72;2.85;;;;;;;14.91;57.71;100554.41;4988382;28;123080;-59
2022/09/26 03:22:03;;;;;;;4.60;2.60;;;;;;;14.93;57.63;100552.47;5000668;28;123662;-59
2022/09/26 03:24:31;;;;;;;6.05;2.80;;;;;;;14.93;57.61;100544.47;4989426;28;114458;-59
2022/09/26 03:26:59;;;;;;;6.05;2.72;;;;;;;14.95;57.50;100550.56;4988716;28;113589;-60
2022/09/26 03:29:27;;;;;;;7.78;2.72;;;;;;;14.97;57.34;100543.34;4990433;28;123222;-60
2022/09/26 03:31:54;;;;;;;8.32;2.53;;;;;;;14.98;57.41;100539.69;4990231;28;124209;-59
2022/09/26 03:34:21;;;;;;;8.02;2.90;;;;;;;15.01;57.42;100541.28;4989670;28;113792;-59
2022/09/26 03:36:49;;;;;;;6.20;2.58;;;;;;;15.01;57.38;100533.28;4985661;28;113957;-59
2022/09/26 03:39:17;;;;;;;5.38;2.72;;;;;;;15.01;57.31;100533.28;4989829;28;124201;-60
2022/09/26 03:41:49;;;;;;;4.93;2.60;;;;;;;15.03;57.27;100528.72;4987858;28;122781;-59
2022/09/26 03:44:24;;;;;;;4.45;2.35;;;;;;;15.02;57.28;100526.16;4984428;28;115017;-59
2022/09/26 03:47:03;;;;;;;7.97;2.58;;;;;;;15.04;57.12;100521.56;4991000;28;115544;-59
2022/09/26 03:49:33;;;;;;;4.30;2.35;;;;;;;15.05;57.16;100517.94;4989843;28;123646;-59
2022/09/26 03:52:02;;;;;;;3.63;2.13;;;;;;;15.05;57.02;100507.25;4982755;28;123023;-59
2022/09/26 03:54:30;;;;;;;5.65;2.67;;;;;;;15.07;56.91;100500.00;4987819;28;114031;-59
2022/09/26 03:56:57;;;;;;;6.93;2.45;;;;;;;15.06;56.88;100499.16;4986132;28;113264;-59
2022/09/26 03:59:24;;;;;;;8.95;2.60;;;;;;;15.08;56.92;100493.72;4981900;28;123551;-59
2022/09/26 04:01:52;;;;;;;4.45;2.20;;;;;;;15.08;56.85;100485.72;4987459;28;123683;-60
2022/09/26 04:04:19;;;;;;;4.70;2.50;;;;;;;15.06;56.82;100476.97;4989403;28;114246;-59
2022/09/26 04:06:49;;;;;;;5.05;2.40;;;;;;;15.07;56.88;100481.31;4984261;28;113313;-59
2022/09/26 04:09:17;;;;;;;5.13;2.35;;;;;;;15.07;56.88;100478.66;4982183;28;123027;-60
2022/09/26 04:11:49;;;;;;;6.00;2.38;;;;;;;15.06;56.88;100472.47;4991288;28;124006;-60
2022/09/26 04:14:17;;;;;;;4.18;2.28;;;;;;;15.07;56.96;100470.66;4989315;28;113535;-60
2022/09/26 04:16:47;;;;;;;4.72;2.17;;;;;;;15.06;56.96;100466.31;4987345;28;112894;-60
2022/09/26 04:19:23;;;;;;;5.93;2.35;;;;;;;15.07;56.84;100457.31;4971673;28;126696;-60
2022/09/26 04:21:50;;;;;;;5.05;2.25;;;;;;;15.08;56.91;100459.03;4970600;28;123009;-60
2022/09/26 04:24:20;;;;;;;7.32;2.10;;;;;;;15.06;56.93;100450.31;4990109;28;114010;-59
2022/09/26 04:26:47;;;;;;;4.40;2.13;;;;;;;15.06;56.90;100450.31;4987631;28;112996;-60
2022/09/26 04:29:15;;;;;;;8.70;2.35;;;;;;;15.05;57.03;100446.78;4982734;28;123461;-59
2022/09/26 04:32:11;;;;;;;6.50;2.13;;;;;;;15.04;56.83;100438.88;4969245;28;124977;-60
2022/09/26 04:35:01;;;;;;;4.60;2.17;;;;;;;15.01;56.80;100431.09;4983251;28;115179;-59
2022/09/26 04:37:28;;;;;;;5.05;2.10;;;;;;;15.01;56.90;100425.75;4988587;28;115402;-59
2022/09/26 04:39:56;;;;;;;6.82;2.30;;;;;;;14.99;56.96;100418.72;4987931;28;124422;-59
2022/09/26 04:42:24;;;;;;;6.90;2.13;;;;;;;14.99;56.88;100413.41;4989294;28;123112;-59
2022/09/26 04:44:51;;;;;;;6.22;2.45;;;;;;;14.98;56.80;100406.34;4985520;28;113478;-59
2022/09/26 04:47:19;;;;;;;6.90;2.40;;;;;;;14.98;56.86;100395.69;4988554;28;113774;-60
2022/09/26 04:50:16;;;;;;;7.47;2.45;;;;;;;14.97;56.74;100387.78;4988384;28;124440;-59
2022/09/26 04:53:00;;;;;;;;;;;;;;;14.93;56.89;100387.13;4990544;28;124849;-59
2022/09/26 04:55:27;;;;;;;4.90;2.25;;;;;;;14.95;56.74;100385.22;4988299;28;113681;-59
2022/09/26 04:57:55;;;;;;;4.13;2.03;;;;;;;14.95;56.78;100382.56;4987995;28;114057;-59
2022/09/26 05:00:22;;;;;;;3.83;1.88;;;;;;;14.95;56.97;100376.38;4983123;28;124460;-59
2022/09/26 05:02:50;;;;;;;5.93;2.10;;;;;;;14.96;56.75;100372.75;4985695;28;123444;-61
2022/09/26 05:05:17;;;;;;;4.70;2.10;;;;;;;14.95;56.78;100361.22;4986165;28;113556;-59
2022/09/26 05:07:44;;;;;;;5.22;1.85;;;;;;;14.96;56.69;100364.75;4984919;28;114208;-59
2022/09/26 05:10:12;;;;;;;6.97;2.20;;;;;;;14.94;56.55;100356.88;4985253;28;123500;-59
2022/09/26 05:12:48;;;;;;;5.68;2.28;;;;;;;14.93;56.67;100349.81;4982486;28;126460;-59
2022/09/26 05:15:15;;;;;;;3.13;1.83;;;;;;;14.93;56.56;100343.63;4988496;28;114630;-59
2022/09/26 05:17:44;;;;;;;4.15;2.08;;;;;;;14.92;56.86;100331.28;4972770;28;113250;-59
2022/09/26 05:20:11;;;;;;;5.57;2.42;;;;;;;14.92;56.76;100326.78;4988663;28;123749;-59
2022/09/26 05:22:48;;;;;;;6.55;2.38;;;;;;;14.92;56.81;100316.13;4988422;28;123361;-59
2022/09/26 05:28:01;;;;;;;4.75;2.38;;;;;;;14.91;56.73;100335.75;4988716;28;114040;-59
2022/09/26 05:30:30;;;;;;;5.57;2.20;;;;;;;14.91;56.79;100322.41;4987953;28;123877;-59
2022/09/26 05:32:57;;;;;;;6.03;2.58;;;;;;;14.91;57.00;100319.75;4985146;28;123007;-59
2022/09/26 05:35:24;;;;;;;5.28;2.45;;;;;;;14.91;56.84;100314.41;4980724;28;113805;-60
2022/09/26 05:37:59;;;;;;;4.90;2.40;;;;;;;14.91;56.93;100309.06;4981089;28;113320;-59
2022/09/26 05:43:13;;;;;;;4.55;2.60;;;;;;;14.89;56.87;100295.00;4986297;28;123268;-59
2022/09/26 05:45:40;;;;;;;5.90;2.80;;;;;;;14.87;57.02;100288.94;4987414;28;114030;-59
2022/09/26 05:48:08;;;;;;;7.00;2.85;;;;;;;14.86;57.15;100283.69;4988070;28;113095;-59
2022/09/26 05:50:38;;;;;;;5.75;3.00;;;;;;;14.85;57.26;100288.19;4982754;28;123155;-59
2022/09/26 05:53:09;;;;;;;5.80;2.85;;;;;;;14.84;57.38;100291.81;4988302;28;124269;-59
2022/09/26 05:55:36;;;;;;;8.57;3.40;;;;;;;14.82;57.41;100288.41;4985189;28;113616;-59
2022/09/26 05:58:05;;;;;;;7.70;3.28;;;;;;;14.81;57.51;100289.38;4984917;28;114472;-59
2022/09/26 06:01:04;;;;;;;5.10;3.10;;;;;;;14.80;57.43;100285.00;4989054;28;125658;-59
2022/09/26 06:03:35;;;;;;;11.70;3.70;;;;;;;14.77;57.44;100279.91;4987769;28;123112;-59
2022/09/26 06:06:13;;;;;;;6.60;3.35;;;;;;;14.78;57.55;100276.25;4982947;28;116504;-59
2022/09/26 06:08:41;;;;;;;6.15;3.25;;;;;;;14.77;57.76;100285.22;4989981;28;112695;-59
2022/09/26 06:11:38;;;;;;;7.50;3.50;;;;;;;14.77;57.55;100263.91;4980607;28;124279;-59
2022/09/26 06:14:07;;;;;;;8.40;3.38;;;;;;;14.74;57.63;100269.44;4986277;28;122822;-59
2022/09/26 06:16:34;;;;;;;7.60;2.90;;;;;;;14.71;57.83;100264.31;4971428;28;114297;-59
2022/09/26 06:19:01;;;;;;;7.25;3.25;;;;;;;14.70;57.87;100257.31;4972845;28;114663;-59
2022/09/26 06:21:28;;;;;;;7.45;3.08;;;;;;;14.70;57.80;100258.16;4969182;28;123422;-59
2022/09/26 06:24:04;;;;;;;;;;;;;;;14.66;57.71;100245.16;4984884;28;123694;-59
2022/09/26 06:26:31;;;;;;;6.57;3.25;;;;;;;14.69;57.74;100228.94;4980362;28;113334;-59
2022/09/26 06:29:01;;;;;;;9.48;3.03;;;;;;;14.68;57.98;100227.25;4986958;28;113827;-58
2022/09/26 06:31:33;;;;;;;5.68;2.80;;;;;;;14.69;57.88;100210.28;4969461;28;126339;-59
2022/09/26 06:34:11;;;;;;;6.60;2.88;;;;;;;14.69;58.03;100223.59;4988231;28;124207;-58
2022/09/26 06:36:57;;;;;;;6.35;2.88;;;;;;;14.70;58.16;100214.66;4986835;28;113312;-59
2022/09/26 06:39:34;;;;;;;6.40;3.05;;;;;;;14.71;58.15;100211.88;4980773;28;113280;-60
2022/09/26 06:42:06;;;;;;;8.27;3.20;;;;;;;14.72;58.25;100202.06;4980049;28;122529;-61
2022/09/26 06:44:55;;;;;;;6.57;3.20;;;;;;;14.74;58.31;100194.81;4985507;28;122949;-60
2022/09/26 06:47:23;;;;;;;7.70;3.17;;;;;;;14.77;58.34;100189.28;4987755;28;114768;-61
2022/09/26 06:50:02;;;;;;;9.30;3.17;;;;;;;14.79;58.23;100192.66;4974079;28;113493;-60
2022/09/26 06:52:34;;;;;;;6.88;3.15;;;;;;;14.79;58.38;100182.84;4986176;28;123110;-60
2022/09/26 06:55:03;;;;;;;7.68;3.08;;;;;;;14.81;58.28;100173.91;4979961;28;123304;-61
2022/09/26 06:57:41;;;;;;;8.95;3.13;;;;;;;14.82;58.28;100164.91;4989017;28;112533;-61
2022/09/26 07:00:11;;;;;;;8.10;2.92;;;;;;;14.82;58.21;100155.09;4987675;28;113278;-61
2022/09/26 07:02:57;;;;;;;7.15;2.65;;;;;;;14.82;58.32;100149.78;4991483;28;126021;-61
2022/09/26 07:06:00;;;;;;;7.18;2.92;;;;;;;14.85;58.29;100154.03;4947237;28;124265;-62
2022/09/26 07:08:27;;;;;;;7.65;3.10;;;;;;;14.85;58.03;100144.22;4978853;28;114060;-61
2022/09/26 07:11:18;;;;;;;6.00;3.22;;;;;;;14.87;58.37;100142.28;4988702;28;114674;-61
2022/09/26 07:14:05;;;;;;;7.13;3.03;;;;;;;14.89;58.29;100129.69;4989821;28;124338;-61
2022/09/26 07:16:32;;;;;;;9.00;2.60;;;;;;;14.90;58.28;100130.53;4987888;28;123086;-61
2022/09/26 07:19:18;;;;;;;;;;;;;;;14.88;57.98;100122.69;4992344;28;115069;-62
2022/09/26 07:22:04;;;;;;;7.88;2.28;;;;;;;14.91;58.20;100122.44;4984913;28;113021;-62
2022/09/26 07:24:39;;;;;;;6.15;2.20;;;;;;;14.92;58.25;100115.31;4990439;28;123036;-61
2022/09/26 07:27:06;;;;;;;8.27;2.53;;;;;;;14.93;58.13;100115.16;4977353;28;122834;-61
2022/09/26 07:29:33;;;;;;;5.15;2.60;;;;;;;14.96;58.09;100114.94;4969505;28;113389;-61
2022/09/26 07:32:01;;;;;;;5.03;2.50;;;;;;;14.98;58.29;100113.00;4983542;28;112910;-61
2022/09/26 07:34:38;;;;;;;5.30;2.60;;;;;;;15.02;58.23;100113.63;4985226;28;123837;-61
2022/09/26 07:37:06;;;;;;;6.35;2.30;;;;;;;15.05;58.09;100107.19;4986283;28;123634;-62
2022/09/26 07:39:33;;;;;;;5.57;2.40;;;;;;;15.07;58.15;100099.94;4990847;28;114034;-61
2022/09/26 07:42:02;;;;;;;5.55;2.20;;;;;;;15.11;58.06;100096.09;4990654;28;113288;-61
2022/09/26 07:44:29;;;;;;;5.38;2.25;;;;;;;15.12;57.98;100097.78;4987680;28;123661;-60
2022/09/26 07:50:12;;;;;;;6.03;2.08;;;;;;;15.16;58.08;100077.91;4988690;28;113861;-61
2022/09/26 07:52:57;;;;;;;4.03;2.13;;;;;;;15.17;57.91;100087.63;4987824;28;113824;-60
2022/09/26 07:55:26;;;;;;;4.97;2.38;;;;;;;15.18;57.86;100087.50;4990326;28;126977;-61
2022/09/26 07:58:08;;;;;;;16.52;2.40;;;;;;;15.22;57.84;100092.59;4990454;28;123998;-61
2022/09/26 08:00:54;;;;;;;5.90;2.45;;;;;;;15.21;57.93;100086.41;4989558;28;115697;-61
2022/09/26 08:03:47;;;;;;;4.35;2.15;;;;;;;15.26;57.99;100088.75;4981557;28;116025;-61
2022/09/26 08:06:31;;;;;;;4.93;2.10;;;;;;;15.29;58.05;100086.66;4974009;28;123156;-62
2022/09/26 08:08:59;;;;;;;4.10;2.10;;;;;;;15.31;57.82;100076.75;4989076;28;123562;-62
2022/09/26 08:11:45;;;;;;;5.63;2.20;;;;;;;15.33;58.04;100080.16;4984900;28;116312;-61
2022/09/26 08:14:32;;;;;;;6.57;2.35;;;;;;;15.36;57.95;100079.88;4989578;28;114112;-61
2022/09/26 08:17:14;;;;;;;2.88;1.88;;;;;;;15.40;57.92;100069.00;4989506;28;124310;-61
2022/09/26 08:19:42;;;;;;;6.15;2.00;;;;;;;15.41;57.94;100070.66;4987361;28;124145;-61
2022/09/26 08:22:10;;;;;;;4.15;2.20;;;;;;;15.42;57.99;100067.03;4988283;28;114305;-62
2022/09/26 08:24:37;;;;;;;7.32;2.13;;;;;;;15.44;57.83;100054.44;4989283;28;113064;-61
2022/09/26 08:27:23;;;;;;;7.15;2.30;;;;;;;15.45;57.83;100061.47;4985750;28;124615;-62
2022/09/26 08:29:51;;;;;;;5.43;1.92;;;;;;;15.48;58.00;100058.56;4997888;28;123099;-62
2022/09/26 08:32:19;;;;;;;4.65;2.30;;;;;;;15.50;58.00;100053.94;4989944;28;113162;-62
2022/09/26 08:34:46;;;;;;;6.10;2.17;;;;;;;15.51;58.06;100044.97;4988959;28;114103;-62
2022/09/26 08:37:45;;;;;;;6.43;2.25;;;;;;;15.51;57.77;100044.97;4978284;28;123810;-62
2022/09/26 08:40:45;;;;;;;;;;;;;;;15.50;57.72;100035.25;4990589;28;124766;-62
2022/09/26 08:43:44;;;;;;;6.07;2.22;;;;;;;15.51;57.86;100034.31;4990011;28;115306;-62
2022/09/26 08:46:51;;;;;;;5.00;1.90;;;;;;;15.52;57.87;100041.31;4992083;28;114706;-62
2022/09/26 08:50:22;;;;;;;2.92;1.80;;;;;;;15.54;57.78;100039.41;4928777;28;124525;-62
2022/09/26 08:53:04;;;;;;;6.45;2.13;;;;;;;15.57;57.97;100033.81;4924975;28;122992;-62
2022/09/26 08:55:41;;;;;;;4.70;1.88;;;;;;;15.62;57.95;100030.78;4971104;28;114350;-62
2022/09/26 08:58:36;;;;;;;7.45;2.10;;;;;;;15.66;57.82;100026.91;5000782;28;114527;-62
2022/09/26 09:01:12;;;;;;;6.20;2.40;;;;;;;15.70;57.84;100033.69;4979128;28;123358;-62
2022/09/26 09:04:06;;;;;;;4.43;1.92;;;;;;;15.70;57.89;100020.34;4991197;28;124633;-62
2022/09/26 09:06:35;;;;;;;4.60;2.10;;;;;;;15.72;57.74;100021.91;4976075;28;114795;-62
2022/09/26 09:09:02;;;;;;;7.22;2.00;;;;;;;15.75;57.88;100015.53;4976834;28;112624;-62
2022/09/26 09:11:56;;;;;;;7.47;2.20;;;;;;;15.77;57.88;100014.44;4968830;28;123897;-62
2022/09/26 09:15:12;;;;;;;5.32;2.08;;;;;;;15.82;57.85;100007.84;4986301;28;122916;-62
2022/09/26 09:18:32;;;;;;;4.85;1.90;;;;;;;15.84;57.95;100003.25;4922273;28;115758;-62
2022/09/26 09:21:26;;;;;;;3.83;1.83;;;;;;;15.88;58.08;100004.69;4990151;28;116331;-62
2022/09/26 09:24:17;;;;;;;4.82;2.15;;;;;;;15.93;58.06;100003.34;4978130;28;123139;-62
2022/09/26 09:26:55;;;;;;;5.15;2.15;;;;;;;16.02;58.02;100001.75;4988799;28;123051;-62
2022/09/26 09:29:55;;;;;;;5.65;2.13;;;;;;;16.07;58.05;99999.56;4976632;28;113514;-62
2022/09/26 09:33:08;;;;;;;7.00;2.20;;;;;;;16.12;58.14;100002.72;4990653;28;114378;-62
2022/09/26 09:35:58;;;;;;;5.90;2.33;;;;;;;16.18;58.04;99997.81;4978097;28;123184;-62
2022/09/26 09:39:10;;;;;;;5.80;2.45;;;;;;;16.20;58.07;99987.84;4978813;28;124222;-62
2022/09/26 09:42:05;;;;;;;5.85;2.42;;;;;;;16.19;58.37;99986.19;4986687;28;113471;-62
2022/09/26 09:44:45;;;;;;;4.45;2.25;;;;;;;16.18;58.24;99973.78;4981525;28;113832;-62
2022/09/26 09:47:16;;;;;;;4.53;2.28;;;;;;;16.17;58.39;99972.09;4968930;28;125727;-62
2022/09/26 09:49:46;;;;;;;8.55;2.40;;;;;;;16.17;58.54;99967.59;4979711;28;124077;-61
2022/09/26 09:52:41;;;;;;;6.45;2.35;;;;;;;16.15;58.79;99951.69;4988768;28;114807;-61
2022/09/26 09:55:43;;;;;;;4.85;2.28;;;;;;;16.13;58.55;99945.63;4985858;28;113807;-61
2022/09/26 09:58:35;;;;;;;6.45;2.47;;;;;;;16.12;58.76;99938.59;4989196;28;123133;-61
2022/09/26 10:01:11;;;;;;;9.07;2.63;;;;;;;16.13;59.02;99940.28;4973386;28;123024;-61
2022/09/26 10:03:41;;;;;;;4.38;2.38;;;;;;;16.13;59.32;99934.94;4973135;28;113609;-61
2022/09/26 10:06:11;;;;;;;6.10;2.60;;;;;;;16.17;59.25;99937.38;4989032;28;113032;-61
2022/09/26 10:09:23;;;;;;;5.60;2.65;;;;;;;16.18;59.37;99917.69;4989439;28;123169;-60
2022/09/26 10:12:31;;;;;;;5.88;2.80;;;;;;;16.21;59.39;99910.25;4971774;28;125231;-60
2022/09/26 10:15:25;;;;;;;7.95;2.90;;;;;;;16.25;59.63;99910.84;4977470;28;115071;-60
2022/09/26 10:18:10;;;;;;;6.65;2.55;;;;;;;16.29;59.74;99912.28;4989964;28;114783;-60
2022/09/26 10:21:12;;;;;;;7.78;2.88;;;;;;;16.34;59.78;99900.22;4981692;28;123118;-60
2022/09/26 10:23:45;;;;;;;7.40;2.83;;;;;;;16.37;59.68;99899.16;5002401;28;123228;-60
2022/09/26 10:26:33;;;;;;;5.90;2.45;;;;;;;16.39;59.68;99897.19;4986798;28;113491;-60
2022/09/26 10:29:23;;;;;;;9.43;2.60;;;;;;;16.38;59.55;99895.47;4986447;28;113320;-60
2022/09/26 10:31:56;;;;;;;5.00;2.50;;;;;;;16.39;59.63;99891.84;4989031;28;123630;-60
2022/09/26 10:34:26;;;;;;;4.18;2.20;;;;;;;16.38;59.66;99884.78;4987543;28;122971;-60
2022/09/26 10:36:54;;;;;;;4.93;2.50;;;;;;;16.39;59.55;99881.16;4985187;28;115380;-60
2022/09/26 10:42:21;;;;;;;9.55;2.63;;;;;;;16.38;59.70;99871.44;4991247;28;122767;-60
2022/09/26 10:44:56;;;;;;;6.22;2.33;;;;;;;16.38;59.59;99874.09;4990163;28;124092;-58
2022/09/26 10:47:45;;;;;;;6.35;2.80;;;;;;;16.39;59.77;99865.13;4993181;28;115783;-58
2022/09/26 10:50:34;;;;;;;7.43;2.70;;;;;;;16.40;59.62;99866.78;4992623;28;115865;-58
2022/09/26 10:53:22;;;;;;;5.97;2.47;;;;;;;16.38;59.50;99865.25;4993421;28;124763;-59
2022/09/26 10:55:58;;;;;;;7.15;2.78;;;;;;;16.36;59.80;99857.34;4988813;28;123605;-59
2022/09/26 10:58:28;;;;;;;9.18;2.78;;;;;;;16.34;59.59;99862.81;4990786;28;113426;-59
2022/09/26 11:01:02;;;;;;;4.72;2.50;;;;;;;16.33;59.85;99854.94;4974662;28;116298;-59
2022/09/26 11:03:40;;;;;;;5.53;2.67;;;;;;;16.31;59.78;99851.53;4988581;28;123262;-59
2022/09/26 11:06:31;;;;;;;6.65;2.70;;;;;;;16.31;59.85;99851.53;4991984;28;123598;-59
2022/09/26 11:09:05;;;;;;;7.57;2.63;;;;;;;16.32;59.94;99853.25;4974827;28;113342;-59
2022/09/26 11:12:25;;;;;;;6.00;2.60;;;;;;;16.32;60.13;99843.41;4948526;28;114303;-59
2022/09/26 11:14:59;;;;;;;4.25;2.35;;;;;;;16.33;60.04;99846.91;4931247;28;123259;-59
2022/09/26 11:17:43;;;;;;;5.55;2.17;;;;;;;16.32;60.30;99853.25;4957942;28;124163;-59
2022/09/26 11:20:28;;;;;;;6.57;2.58;;;;;;;16.30;60.08;99839.19;4999585;28;113360;-59
2022/09/26 11:23:13;;;;;;;6.43;2.70;;;;;;;16.29;60.18;99833.00;4990843;28;113183;-59
2022/09/26 11:25:57;;;;;;;7.22;2.58;;;;;;;16.28;60.33;99831.28;4989119;28;123392;-59
2022/09/26 11:29:08;;;;;;;6.40;2.67;;;;;;;16.28;60.23;99831.28;4979838;28;123158;-59
2022/09/26 11:31:51;;;;;;;6.28;2.53;;;;;;;16.28;60.41;99827.78;4976101;28;113372;-59
2022/09/26 11:34:44;;;;;;;5.60;2.25;;;;;;;16.26;60.25;99819.03;4990307;28;113754;-59
2022/09/26 11:37:47;;;;;;;7.55;2.70;;;;;;;16.24;60.37;99813.00;4994785;28;122997;-60
2022/09/26 11:40:48;;;;;;;7.03;2.42;;;;;;;16.21;60.34;99813.25;4976779;28;124129;-60
2022/09/26 11:43:37;;;;;;;6.05;2.90;;;;;;;16.20;60.58;99832.91;4978783;28;115842;-60
2022/09/26 11:46:24;;;;;;;5.63;2.40;;;;;;;16.15;60.37;99815.44;4984488;28;113978;-60
2022/09/26 11:49:28;;;;;;;6.03;2.80;;;;;;;16.14;60.59;99808.44;4991755;28;123113;-60
2022/09/26 11:53:06;;;;;;;4.88;2.45;;;;;;;16.12;60.62;99815.72;4985116;28;123259;-60
2022/09/26 11:56:00;;;;;;;7.22;2.88;;;;;;;16.08;60.72;99811.59;4957471;28;114832;-60
2022/09/26 11:58:42;;;;;;;4.15;2.40;;;;;;;16.07;60.87;99812.59;4989834;28;113731;-60
2022/09/26 12:01:38;;;;;;;6.20;2.45;;;;;;;16.07;61.04;99801.91;4992463;28;124499;-60
2022/09/26 12:04:33;;;;;;;5.30;2.47;;;;;;;16.05;60.98;99809.22;4986273;28;124167;-60
2022/09/26 12:07:19;;;;;;;4.75;2.45;;;;;;;16.00;60.91;99798.06;4989479;28;114565;-60
2022/09/26 12:10:02;;;;;;;;;;;;;;;15.95;60.55;99797.59;4976249;28;113721;-60
2022/09/26 12:12:56;;;;;;;5.03;2.40;;;;;;;15.94;60.87;99795.91;4988844;28;124150;-61
2022/09/26 12:15:32;;;;;;;5.05;2.58;;;;;;;15.93;61.11;99788.88;4989297;28;123837;-60
2022/09/26 12:18:17;;;;;;;7.07;2.55;;;;;;;15.92;61.30;99781.84;4989701;28;114365;-61
2022/09/26 12:20:47;;;;;;;10.93;2.77;;;;;;;15.93;61.51;99783.53;4991253;28;114571;-60
2022/09/26 12:23:32;;;;;;;8.05;2.90;;;;;;;15.94;61.51;99775.38;4981335;28;123816;-60